createdAt,value
2018-06-27T00:02:16.844Z,100560.03
2018-06-27T00:04:46.832Z,100558.77
2018-06-27T00:07:16.747Z,100556.19
2018-06-27T00:09:47.321Z,100557.34
2018-06-27T00:12:17.279Z,100553.42
2018-06-27T00:14:47.356Z,100555.97
2018-06-27T00:17:17.239Z,100551.11
2018-06-27T00:19:47.278Z,100539.60
2018-06-27T00:22:17.412Z,100544.95
2018-06-27T00:24:47.393Z,100546.02
2018-06-27T00:27:17.484Z,100536.25
2018-06-27T00:29:47.535Z,100535.78
2018-06-27T00:32:17.733Z,100524.76
2018-06-27T00:34:48.167Z,100532.37
2018-06-27T00:37:18.242Z,100524.77
2018-06-27T00:39:48.553Z,100506.42
2018-06-27T00:42:18.660Z,100510.12
2018-06-27T00:44:48.840Z,100504.45
2018-06-27T00:47:18.998Z,100492.94
2018-06-27T00:49:49.013Z,100483.95
2018-06-27T00:52:19.449Z,100484.27
2018-06-27T00:54:49.423Z,100485.24
2018-06-27T00:57:19.442Z,100489.83
2018-06-27T00:59:49.396Z,100487.29
2018-06-27T01:02:19.475Z,100494.41
2018-06-27T01:04:49.870Z,100498.59
2018-06-27T01:07:21.522Z,100505.80
2018-06-27T01:09:52.016Z,100496.14
2018-06-27T01:12:22.308Z,100499.66
2018-06-27T01:14:52.224Z,100494.13
2018-06-27T01:17:22.269Z,100503.53
2018-06-27T01:19:52.600Z,100497.08
2018-06-27T01:22:22.714Z,100500.09
2018-06-27T01:24:52.990Z,100492.87
2018-06-27T01:27:23.423Z,100497.38
2018-06-27T01:29:53.407Z,100498.34
2018-06-27T01:32:23.851Z,100496.88
2018-06-27T01:34:54.392Z,100504.72
2018-06-27T01:37:24.392Z,100509.25
2018-06-27T01:39:54.662Z,100502.56
2018-06-27T01:42:24.749Z,100501.39
2018-06-27T01:44:54.947Z,100500.78
2018-06-27T01:47:24.903Z,100506.00
2018-06-27T01:49:55.044Z,100511.58
2018-06-27T01:52:25.536Z,100519.88
2018-06-27T01:54:56.093Z,100519.94
2018-06-27T01:57:26.092Z,100520.45
2018-06-27T01:59:56.083Z,100522.00
2018-06-27T02:02:26.036Z,100518.72
2018-06-27T02:04:56.300Z,100518.99
2018-06-27T02:07:26.598Z,100509.70
2018-06-27T02:09:56.819Z,100512.70
2018-06-27T02:12:27.023Z,100509.99
2018-06-27T02:14:57.207Z,100508.53
2018-06-27T02:17:27.703Z,100506.47
2018-06-27T02:19:57.876Z,100508.34
2018-06-27T02:22:27.862Z,100504.35
2018-06-27T02:24:58.111Z,100511.26
2018-06-27T02:27:28.733Z,100502.95
2018-06-27T02:29:58.983Z,100505.14
2018-06-27T02:32:29.017Z,100506.18
2018-06-27T02:34:59.356Z,100506.83
2018-06-27T02:37:29.894Z,100511.19
2018-06-27T02:40:00.155Z,100502.13
2018-06-27T02:42:30.402Z,100495.09
2018-06-27T02:45:00.332Z,100500.63
2018-06-27T02:47:30.882Z,100517.23
2018-06-27T02:50:00.788Z,100512.17
2018-06-27T02:52:30.691Z,100507.48
2018-06-27T02:55:01.168Z,100501.34
2018-06-27T02:57:31.422Z,100498.42
2018-06-27T03:00:01.423Z,100490.47
2018-06-27T03:02:31.864Z,100498.81
2018-06-27T03:05:02.125Z,100495.87
2018-06-27T03:07:32.316Z,100486.77
2018-06-27T03:10:02.572Z,100487.94
2018-06-27T03:12:32.927Z,100483.11
2018-06-27T03:15:03.196Z,100482.31
2018-06-27T03:17:33.353Z,100484.50
2018-06-27T03:20:03.387Z,100477.88
2018-06-27T03:22:33.456Z,100472.53
2018-06-27T03:25:03.495Z,100471.45
2018-06-27T03:27:33.563Z,100481.94
2018-06-27T03:30:03.535Z,100478.08
2018-06-27T03:32:33.588Z,100477.37
2018-06-27T03:35:04.297Z,100497.11
2018-06-27T03:37:34.453Z,100500.09
2018-06-27T03:40:04.300Z,100502.16
2018-06-27T03:42:34.323Z,100504.73
2018-06-27T03:45:04.192Z,100502.22
2018-06-27T03:47:34.143Z,100507.76
2018-06-27T03:50:04.112Z,100507.86
2018-06-27T03:52:33.968Z,100511.57
2018-06-27T03:55:04.050Z,100504.47
2018-06-27T03:57:34.052Z,100494.79
2018-06-27T04:00:04.180Z,100481.91
2018-06-27T04:02:34.201Z,100488.25
2018-06-27T04:05:04.400Z,100475.16
2018-06-27T04:07:34.601Z,100468.66
2018-06-27T04:10:04.855Z,100468.64
2018-06-27T04:12:34.854Z,100468.81
2018-06-27T04:15:05.245Z,100463.16
2018-06-27T04:17:35.143Z,100469.17
2018-06-27T04:20:05.288Z,100462.98
2018-06-27T04:22:36.251Z,100455.28
2018-06-27T04:25:06.339Z,100441.53
2018-06-27T04:27:36.267Z,100434.02
2018-06-27T04:30:06.313Z,100426.45
2018-06-27T04:32:36.512Z,100418.30
2018-06-27T04:35:06.683Z,100429.53
2018-06-27T04:37:36.568Z,100428.63
2018-06-27T04:40:06.654Z,100422.34
2018-06-27T04:42:37.402Z,100430.19
2018-06-27T04:45:07.699Z,100426.67
2018-06-27T04:47:37.606Z,100430.33
2018-06-27T04:50:07.948Z,100439.55
2018-06-27T04:52:38.981Z,100448.20
2018-06-27T04:55:09.332Z,100444.55
2018-06-27T04:57:39.246Z,100440.06
2018-06-27T05:00:10.110Z,100456.43
2018-06-27T05:02:40.141Z,100471.92
2018-06-27T05:05:10.599Z,100482.44
2018-06-27T05:07:40.821Z,100485.34
2018-06-27T05:10:11.130Z,100485.50
2018-06-27T05:12:41.927Z,100487.41
2018-06-27T05:15:12.260Z,100493.25
2018-06-27T05:17:42.480Z,100504.34
2018-06-27T05:20:12.728Z,100508.77
2018-06-27T05:22:43.022Z,100513.56
2018-06-27T05:25:13.434Z,100518.77
2018-06-27T05:27:43.527Z,100515.42
2018-06-27T05:30:13.550Z,100514.49
2018-06-27T05:32:43.432Z,100524.82
2018-06-27T05:35:13.643Z,100521.91
2018-06-27T05:37:43.632Z,100516.15
2018-06-27T05:40:13.828Z,100518.18
2018-06-27T05:42:43.945Z,100515.34
2018-06-27T05:45:13.978Z,100521.14
2018-06-27T05:47:44.089Z,100527.88
2018-06-27T05:50:14.370Z,100542.02
2018-06-27T05:52:44.442Z,100546.59
2018-06-27T05:55:14.368Z,100520.72
2018-06-27T05:57:44.629Z,100561.88
2018-06-27T06:00:15.022Z,100564.04
2018-06-27T06:02:45.008Z,100572.55
2018-06-27T06:05:15.356Z,100573.97
2018-06-27T06:07:45.635Z,100577.59
2018-06-27T06:10:15.973Z,100582.38
2018-06-27T06:12:46.446Z,100582.67
2018-06-27T06:15:16.727Z,100578.36
2018-06-27T06:17:46.974Z,100569.77
2018-06-27T06:20:18.162Z,100567.74
2018-06-27T06:22:48.240Z,100559.89
2018-06-27T06:25:18.314Z,100546.73
2018-06-27T06:27:48.356Z,100542.53
2018-06-27T06:30:18.367Z,100542.54
2018-06-27T06:32:48.334Z,100533.73
2018-06-27T06:35:18.496Z,100531.49
2018-06-27T06:37:48.709Z,100524.27
2018-06-27T06:40:18.793Z,100516.02
2018-06-27T06:42:49.080Z,100509.29
2018-06-27T06:45:18.975Z,100489.69
2018-06-27T06:47:49.215Z,100487.55
2018-06-27T06:50:19.705Z,100478.84
2018-06-27T06:52:49.642Z,100454.92
2018-06-27T06:55:19.783Z,100432.67
2018-06-27T06:57:49.923Z,100427.84
2018-06-27T07:00:20.097Z,100402.55
2018-06-27T07:02:50.186Z,100381.69
2018-06-27T07:05:20.574Z,100365.72
2018-06-27T07:07:50.571Z,100343.47
2018-06-27T07:10:21.095Z,100342.78
2018-06-27T07:12:51.169Z,100353.63
2018-06-27T07:15:21.431Z,100370.30
2018-06-27T07:17:51.375Z,100386.41
2018-06-27T07:20:21.627Z,100401.42
2018-06-27T07:22:52.856Z,100403.81
2018-06-27T07:25:22.816Z,100421.38
2018-06-27T07:27:52.877Z,100431.91
2018-06-27T07:30:22.850Z,100410.43
2018-06-27T07:32:53.290Z,100397.50
2018-06-27T07:35:23.765Z,100402.20
2018-06-27T07:37:53.687Z,100410.71
2018-06-27T07:40:23.862Z,100404.36
2018-06-27T07:42:54.630Z,100408.79
2018-06-27T07:45:24.859Z,100415.01
2018-06-27T07:47:55.597Z,100429.12
2018-06-27T07:50:26.125Z,100428.66
2018-06-27T07:52:56.215Z,100424.48
2018-06-27T07:55:26.470Z,100426.30
2018-06-27T07:57:56.883Z,100413.78
2018-06-27T08:00:27.217Z,100418.05
2018-06-27T08:02:57.068Z,100420.05
2018-06-27T08:05:26.995Z,100423.52
2018-06-27T08:07:56.886Z,100432.86
2018-06-27T08:10:26.822Z,100442.38
2018-06-27T08:12:56.860Z,100443.95
2018-06-27T08:15:26.978Z,100452.34
2018-06-27T08:17:57.199Z,100452.55
2018-06-27T08:20:27.588Z,100443.30
2018-06-27T08:22:57.544Z,100443.86
2018-06-27T08:28:25.094Z,100450.69
2018-06-27T08:30:55.162Z,100436.33
2018-06-27T08:33:24.997Z,100432.27
2018-06-27T08:35:55.536Z,100442.87
2018-06-27T08:38:25.738Z,100446.47
2018-06-27T08:40:56.114Z,100446.38
2018-06-27T08:43:26.597Z,100436.42
2018-06-27T08:45:57.090Z,100434.07
2018-06-27T08:48:27.232Z,100422.76
2018-06-27T08:50:57.276Z,100420.78
2018-06-27T08:53:27.467Z,100411.06
2018-06-27T08:55:57.519Z,100416.98
2018-06-27T08:58:27.511Z,100415.17
2018-06-27T09:00:57.445Z,100416.98
2018-06-27T09:03:27.319Z,100423.76
2018-06-27T09:05:57.791Z,100433.04
2018-06-27T09:08:28.220Z,100429.70
2018-06-27T09:10:58.679Z,100436.34
2018-06-27T09:13:28.954Z,100431.42
2018-06-27T09:15:59.228Z,100433.66
2018-06-27T09:18:29.601Z,100420.23
2018-06-27T09:21:00.249Z,100410.91
2018-06-27T09:23:30.312Z,100421.75
2018-06-27T09:26:00.460Z,100432.94
2018-06-27T09:28:30.364Z,100435.80
2018-06-27T09:31:00.422Z,100439.73
2018-06-27T09:33:30.662Z,100446.84
2018-06-27T09:36:01.265Z,100441.07
2018-06-27T09:38:31.310Z,100432.19
2018-06-27T09:41:01.395Z,100431.29
2018-06-27T09:43:31.395Z,100418.05
2018-06-27T09:46:01.617Z,100420.22
2018-06-27T09:48:32.110Z,100409.95
2018-06-27T09:51:02.220Z,100416.89
2018-06-27T09:53:32.172Z,100413.85
2018-06-27T09:56:03.217Z,100416.89
2018-06-27T09:58:33.268Z,100416.84
2018-06-27T10:01:03.505Z,100413.37
2018-06-27T10:03:34.818Z,100402.44
2018-06-27T10:06:04.867Z,100408.44
2018-06-27T10:08:35.029Z,100408.12
2018-06-27T10:11:05.115Z,100411.69
2018-06-27T10:13:35.066Z,100421.11
2018-06-27T10:16:05.131Z,100412.67
2018-06-27T10:18:35.237Z,100405.16
2018-06-27T10:21:05.676Z,100411.02
2018-06-27T10:23:35.996Z,100410.73
2018-06-27T10:26:06.433Z,100414.80
2018-06-27T10:28:38.034Z,100413.31
2018-06-27T10:31:08.296Z,100408.39
2018-06-27T10:33:38.468Z,100412.55
2018-06-27T10:36:08.640Z,100403.26
2018-06-27T10:38:38.608Z,100397.42
2018-06-27T10:41:08.877Z,100399.53
2018-06-27T10:43:39.448Z,100396.30
2018-06-27T10:46:09.489Z,100391.41
2018-06-27T10:48:40.036Z,100387.40
2018-06-27T10:51:10.081Z,100388.47
2018-06-27T10:53:40.022Z,100385.45
2018-06-27T10:56:10.008Z,100385.33
2018-06-27T10:58:39.945Z,100380.41
2018-06-27T11:01:10.190Z,100375.20
2018-06-27T11:03:41.101Z,100374.91
2018-06-27T11:06:11.301Z,100374.16
2018-06-27T11:08:41.465Z,100375.55
2018-06-27T11:11:11.402Z,100367.22
2018-06-27T11:13:41.513Z,100367.55
2018-06-27T11:16:11.428Z,100354.78
2018-06-27T11:18:41.308Z,100357.78
2018-06-27T11:21:11.517Z,100347.62
2018-06-27T11:23:41.893Z,100341.34
2018-06-27T11:26:12.170Z,100343.11
2018-06-27T11:28:42.444Z,100338.73
2018-06-27T11:31:12.708Z,100342.50
2018-06-27T11:33:43.317Z,100344.91
2018-06-27T11:36:14.822Z,100339.36
2018-06-27T11:38:45.108Z,100351.59
2018-06-27T11:41:15.092Z,100350.36
2018-06-27T11:43:45.127Z,100349.71
2018-06-27T11:46:15.253Z,100347.34
2018-06-27T11:48:45.809Z,100347.35
2018-06-27T11:51:15.797Z,100355.48
2018-06-27T11:53:46.089Z,100362.29
2018-06-27T11:56:16.041Z,100358.42
2018-06-27T11:58:46.279Z,100351.39
2018-06-27T12:01:16.249Z,100357.45
2018-06-27T12:03:46.410Z,100364.53
2018-06-27T12:06:16.972Z,100351.91
2018-06-27T12:08:47.750Z,100354.18
2018-06-27T12:11:18.261Z,100348.97
2018-06-27T12:13:49.300Z,100342.48
2018-06-27T12:16:19.843Z,100337.02
2018-06-27T12:18:50.007Z,100333.04
2018-06-27T12:21:20.124Z,100324.87
2018-06-27T12:24:12.912Z,100319.45
2018-06-27T12:26:42.852Z,100310.93
2018-06-27T12:29:13.175Z,100310.53
2018-06-27T12:31:43.378Z,100311.91
2018-06-27T12:34:13.380Z,100312.63
2018-06-27T12:36:43.308Z,100320.62
2018-06-27T12:39:13.620Z,100317.55
2018-06-27T12:41:43.523Z,100330.92
2018-06-27T12:44:13.421Z,100331.45
2018-06-27T12:46:43.336Z,100332.76
2018-06-27T12:49:13.438Z,100334.25
2018-06-27T12:51:43.384Z,100332.70
2018-06-27T12:54:13.361Z,100318.87
2018-06-27T12:56:43.372Z,100320.17
2018-06-27T12:59:13.317Z,100321.29
2018-06-27T13:01:43.257Z,100300.76
2018-06-27T13:04:13.696Z,100294.56
2018-06-27T13:06:44.032Z,100287.14
2018-06-27T13:09:14.398Z,100285.91
2018-06-27T13:11:44.340Z,100292.44
2018-06-27T13:14:14.790Z,100297.77
2018-06-27T13:16:44.764Z,100299.26
2018-06-27T13:19:14.718Z,100299.44
2018-06-27T13:21:44.750Z,100304.50
2018-06-27T13:24:14.960Z,100301.48
2018-06-27T13:26:45.209Z,100291.32
2018-06-27T13:29:15.187Z,100290.75
2018-06-27T13:31:45.261Z,100282.64
2018-06-27T13:34:15.156Z,100285.48
2018-06-27T13:36:45.149Z,100294.84
2018-06-27T13:39:15.182Z,100302.73
2018-06-27T13:41:45.396Z,100309.45
2018-06-27T13:44:15.877Z,100306.09
2018-06-27T13:46:46.008Z,100306.91
2018-06-27T13:49:15.963Z,100305.94
2018-06-27T13:51:46.088Z,100306.36
2018-06-27T13:54:16.482Z,100307.57
2018-06-27T13:56:47.392Z,100312.50
2018-06-27T13:59:17.510Z,100304.36
2018-06-27T14:01:47.702Z,100285.63
2018-06-27T14:04:17.588Z,100268.03
2018-06-27T14:06:47.852Z,100259.44
2018-06-27T14:09:18.144Z,100256.36
2018-06-27T14:11:48.752Z,100259.28
2018-06-27T14:14:18.822Z,100268.02
2018-06-27T14:16:48.728Z,100265.84
2018-06-27T14:19:18.933Z,100258.99
2018-06-27T14:21:49.024Z,100253.69
2018-06-27T14:24:19.452Z,100251.48
2018-06-27T14:26:49.524Z,100254.11
2018-06-27T14:29:20.247Z,100244.82
2018-06-27T14:31:50.654Z,100247.68
2018-06-27T14:34:21.261Z,100248.32
2018-06-27T14:36:51.440Z,100251.10
2018-06-27T14:39:22.291Z,100232.97
2018-06-27T14:41:52.307Z,100230.51
2018-06-27T14:44:23.474Z,100228.55
2018-06-27T14:46:53.545Z,100235.36
2018-06-27T14:49:23.847Z,100240.67
2018-06-27T14:51:53.772Z,100234.07
2018-06-27T14:54:24.160Z,100227.27
2018-06-27T14:56:54.183Z,100221.80
2018-06-27T14:59:24.428Z,100222.59
2018-06-27T15:01:54.818Z,100220.80
2018-06-27T15:04:25.596Z,100221.66
2018-06-27T15:06:56.130Z,100206.98
2018-06-27T15:09:26.462Z,100201.27
2018-06-27T15:11:56.933Z,100196.30
2018-06-27T15:14:27.021Z,100205.84
2018-06-27T15:16:57.345Z,100206.08
2018-06-27T15:19:28.337Z,100211.72
2018-06-27T15:21:59.374Z,100206.48
2018-06-27T15:24:29.976Z,100199.53
2018-06-27T15:26:59.957Z,100210.33
2018-06-27T15:29:29.977Z,100203.38
2018-06-27T15:31:59.973Z,100204.78
2018-06-27T15:34:30.375Z,100197.83
2018-06-27T15:37:00.514Z,100196.04
2018-06-27T15:39:30.608Z,100191.28
2018-06-27T15:42:00.629Z,100198.61
2018-06-27T15:44:30.614Z,100200.57
2018-06-27T15:47:00.936Z,100208.89
2018-06-27T15:49:30.955Z,100210.31
2018-06-27T15:52:02.072Z,100209.22
2018-06-27T15:54:32.073Z,100207.80
2018-06-27T15:57:02.419Z,100203.83
2018-06-27T15:59:32.553Z,100208.47
2018-06-27T16:02:02.322Z,100205.23
2018-06-27T16:04:32.840Z,100204.77
2018-06-27T16:07:03.293Z,100212.55
2018-06-27T16:09:33.661Z,100223.81
2018-06-27T16:12:03.644Z,100229.86
2018-06-27T16:14:34.284Z,100235.34
2018-06-27T16:17:04.304Z,100242.08
2018-06-27T16:19:34.275Z,100241.34
2018-06-27T16:22:04.184Z,100236.19
2018-06-27T16:24:34.388Z,100245.20
2018-06-27T16:27:04.585Z,100248.80
2018-06-27T16:29:34.894Z,100236.09
2018-06-27T16:32:05.028Z,100232.88
2018-06-27T16:34:34.952Z,100227.72
2018-06-27T16:37:05.601Z,100239.23
2018-06-27T16:39:35.680Z,100238.91
2018-06-27T16:42:05.653Z,100235.62
2018-06-27T16:44:35.689Z,100252.36
2018-06-27T16:47:05.753Z,100253.30
2018-06-27T16:49:35.756Z,100247.98
2018-06-27T16:52:06.876Z,100242.48
2018-06-27T16:54:36.871Z,100238.41
2018-06-27T16:57:07.161Z,100237.36
2018-06-27T16:59:37.129Z,100229.94
2018-06-27T17:02:07.727Z,100229.16
2018-06-27T17:04:38.221Z,100239.03
2018-06-27T17:07:09.732Z,100240.14
2018-06-27T17:09:39.760Z,100242.55
2018-06-27T17:12:09.893Z,100252.64
2018-06-27T17:14:39.948Z,100254.20
2018-06-27T17:17:09.860Z,100255.95
2018-06-27T17:19:40.127Z,100257.64
2018-06-27T17:22:10.123Z,100254.14
2018-06-27T17:24:40.721Z,100255.35
2018-06-27T17:27:10.825Z,100251.38
2018-06-27T17:29:40.922Z,100249.27
2018-06-27T17:32:11.434Z,100257.10
2018-06-27T17:34:41.506Z,100247.82
2018-06-27T17:37:11.802Z,100253.51
2018-06-27T17:39:42.476Z,100258.23
2018-06-27T17:42:12.958Z,100247.62
2018-06-27T17:44:43.034Z,100241.70
2018-06-27T17:47:13.396Z,100255.70
2018-06-27T17:49:43.830Z,100256.75
2018-06-27T17:52:13.840Z,100262.32
2018-06-27T17:54:43.972Z,100262.69
2018-06-27T17:57:14.089Z,100264.37
2018-06-27T17:59:43.977Z,100251.63
2018-06-27T18:02:14.575Z,100260.94
2018-06-27T18:04:44.592Z,100276.89
2018-06-27T18:07:14.685Z,100278.21
2018-06-27T18:09:45.082Z,100285.78
2018-06-27T18:12:15.433Z,100288.75
2018-06-27T18:14:45.681Z,100287.34
2018-06-27T18:17:15.692Z,100287.81
2018-06-27T18:19:46.387Z,100283.27
2018-06-27T18:22:16.296Z,100291.09
2018-06-27T18:24:46.412Z,100286.09
2018-06-27T18:27:16.611Z,100283.73
2018-06-27T18:29:47.040Z,100277.36
2018-06-27T18:32:17.008Z,100287.91
2018-06-27T18:34:47.196Z,100288.25
2018-06-27T18:37:17.643Z,100283.63
2018-06-27T18:39:47.782Z,100285.47
2018-06-27T18:42:17.771Z,100287.00
2018-06-27T18:44:48.302Z,100283.05
2018-06-27T18:47:18.690Z,100273.00
2018-06-27T18:49:48.730Z,100263.94
2018-06-27T18:52:19.953Z,100262.30
2018-06-27T18:54:50.454Z,100260.62
2018-06-27T18:57:20.654Z,100261.08
2018-06-27T18:59:50.902Z,100278.88
2018-06-27T19:02:21.300Z,100287.28
2018-06-27T19:04:51.476Z,100285.16
2018-06-27T19:07:22.014Z,100268.65
2018-06-27T19:09:51.983Z,100272.30
2018-06-27T19:12:22.076Z,100260.59
2018-06-27T19:14:52.712Z,100259.41
2018-06-27T19:17:22.999Z,100263.41
2018-06-27T19:19:53.110Z,100272.41
2018-06-27T19:22:23.715Z,100272.14
2018-06-27T19:24:54.145Z,100279.67
2018-06-27T19:27:24.083Z,100279.72
2018-06-27T19:29:54.184Z,100274.56
2018-06-27T19:32:24.577Z,100272.65
2018-06-27T19:34:54.762Z,100275.15
2018-06-27T19:37:25.146Z,100283.37
2018-06-27T19:39:55.382Z,100299.62
2018-06-27T19:42:25.517Z,100311.54
2018-06-27T19:44:55.546Z,100336.13
2018-06-27T19:47:25.524Z,100361.86
2018-06-27T19:49:55.679Z,100381.97
2018-06-27T19:52:25.710Z,100390.42
2018-06-27T19:54:55.658Z,100395.75
2018-06-27T19:57:26.284Z,100387.14
2018-06-27T19:59:58.261Z,100379.63
2018-06-27T20:02:28.423Z,100363.01
2018-06-27T20:04:58.512Z,100341.70
2018-06-27T20:07:29.473Z,100312.95
2018-06-27T20:09:59.624Z,100339.05
2018-06-27T20:12:30.206Z,100369.47
2018-06-27T20:15:00.286Z,100377.00
2018-06-27T20:17:30.624Z,100379.73
2018-06-27T20:20:00.692Z,100368.80
2018-06-27T20:22:30.816Z,100357.23
2018-06-27T20:25:01.052Z,100330.18
2018-06-27T20:27:31.254Z,100299.66
2018-06-27T20:30:01.438Z,100276.18
2018-06-27T20:32:31.658Z,100267.26
2018-06-27T20:35:01.865Z,100277.13
2018-06-27T20:37:32.728Z,100285.47
2018-06-27T20:40:03.046Z,100305.45
2018-06-27T20:42:33.308Z,100337.92
2018-06-27T20:45:03.348Z,100366.50
2018-06-27T20:47:33.564Z,100393.59
2018-06-27T20:50:03.708Z,100399.53
2018-06-27T20:52:33.870Z,100400.90
2018-06-27T20:55:04.180Z,100389.26
2018-06-27T20:57:34.658Z,100383.02
2018-06-27T21:00:04.664Z,100373.25
2018-06-27T21:02:34.716Z,100364.94
2018-06-27T21:05:05.019Z,100360.97
2018-06-27T21:07:35.088Z,100345.52
2018-06-27T21:10:05.471Z,100354.23
2018-06-27T21:12:35.487Z,100327.52
2018-06-27T21:15:05.474Z,100346.91
2018-06-27T21:17:35.533Z,100351.41
2018-06-27T21:20:05.830Z,100341.25
2018-06-27T21:22:36.262Z,100337.34
2018-06-27T21:25:06.239Z,100358.63
2018-06-27T21:27:36.472Z,100365.52
2018-06-27T21:30:07.547Z,100366.91
2018-06-27T21:32:37.483Z,100378.73
2018-06-27T21:35:07.516Z,100373.08
2018-06-27T21:37:37.790Z,100356.08
2018-06-27T21:40:08.242Z,100352.69
2018-06-27T21:42:38.206Z,100357.90
2018-06-27T21:45:08.661Z,100371.58
2018-06-27T21:47:40.249Z,100383.25
2018-06-27T21:50:11.756Z,100412.95
2018-06-27T21:52:41.759Z,100436.70
2018-06-27T21:55:11.819Z,100437.83
2018-06-27T21:57:42.064Z,100442.91
2018-06-27T22:00:12.630Z,100432.31
2018-06-27T22:02:43.417Z,100415.42
2018-06-27T22:05:13.340Z,100399.39
2018-06-27T22:07:43.761Z,100382.36
2018-06-27T22:10:13.877Z,100362.78
2018-06-27T22:12:44.050Z,100335.31
2018-06-27T22:15:14.340Z,100303.93
2018-06-27T22:17:44.759Z,100284.86
2018-06-27T22:20:15.007Z,100265.83
2018-06-27T22:22:45.189Z,100249.50
2018-06-27T22:25:15.280Z,100245.12
2018-06-27T22:27:45.444Z,100228.69
2018-06-27T22:30:15.716Z,100231.69
2018-06-27T22:32:46.077Z,100202.39
2018-06-27T22:35:16.462Z,100215.97
2018-06-27T22:37:46.705Z,100209.47
2018-06-27T22:40:16.815Z,100191.20
2018-06-27T22:42:47.555Z,100193.89
2018-06-27T22:45:17.848Z,100188.02
2018-06-27T22:47:47.901Z,100184.91
2018-06-27T22:50:18.275Z,100175.41
2018-06-27T22:52:48.319Z,100183.61
2018-06-27T22:55:18.704Z,100189.77
2018-06-27T22:57:49.056Z,100182.65
2018-06-27T23:00:22.100Z,100187.34
2018-06-27T23:02:51.977Z,100184.77
2018-06-27T23:05:22.582Z,100181.58
2018-06-27T23:07:52.778Z,100182.42
2018-06-27T23:10:22.886Z,100169.14
2018-06-27T23:12:52.884Z,100175.15
2018-06-27T23:15:22.936Z,100170.62
2018-06-27T23:17:52.951Z,100162.82
2018-06-27T23:20:23.262Z,100155.48
2018-06-27T23:22:53.418Z,100152.13
2018-06-27T23:25:23.490Z,100149.00
2018-06-27T23:27:53.517Z,100146.92
2018-06-27T23:30:23.685Z,100145.91
2018-06-27T23:32:53.790Z,100138.94
2018-06-27T23:35:23.853Z,100132.09
2018-06-27T23:37:54.401Z,100130.34
2018-06-27T23:40:24.440Z,100122.06
2018-06-27T23:42:54.582Z,100125.81
2018-06-27T23:45:24.820Z,100133.83
2018-06-27T23:47:54.934Z,100141.66
2018-06-27T23:50:24.997Z,100139.80
2018-06-27T23:52:55.033Z,100142.52
2018-06-27T23:55:25.211Z,100143.94
2018-06-27T23:57:55.300Z,100141.50
